createdAt,value
2022-07-27T00:00:57.030Z,99.90
2022-07-27T00:03:23.957Z,99.90
2022-07-27T00:05:51.646Z,99.90
2022-07-27T00:08:22.310Z,99.90
2022-07-27T00:10:52.335Z,99.90
2022-07-27T00:13:22.073Z,99.90
2022-07-27T00:15:51.269Z,99.90
2022-07-27T00:18:18.001Z,99.90
2022-07-27T00:20:44.811Z,99.90
2022-07-27T00:23:11.893Z,99.90
2022-07-27T00:25:40.836Z,99.90
2022-07-27T00:28:09.763Z,99.90
2022-07-27T00:30:36.508Z,99.90
2022-07-27T00:33:05.526Z,99.90
2022-07-27T00:35:37.149Z,99.90
2022-07-27T00:38:06.553Z,99.90
2022-07-27T00:40:33.262Z,99.90
2022-07-27T00:43:02.506Z,99.90
2022-07-27T00:45:31.813Z,99.90
2022-07-27T00:47:58.674Z,99.90
2022-07-27T00:50:27.744Z,99.90
2022-07-27T00:52:55.318Z,99.90
2022-07-27T00:55:22.585Z,99.90
2022-07-27T00:57:58.931Z,99.90
2022-07-27T01:00:28.717Z,99.90
2022-07-27T01:02:57.501Z,99.90
2022-07-27T01:05:35.994Z,99.90
2022-07-27T01:08:04.837Z,99.90
2022-07-27T01:10:33.874Z,99.90
2022-07-27T01:13:00.733Z,99.90
2022-07-27T01:15:35.427Z,99.90
2022-07-27T01:18:04.595Z,99.90
2022-07-27T01:20:31.363Z,99.90
2022-07-27T01:22:58.040Z,99.90
2022-07-27T01:25:24.963Z,99.90
2022-07-27T01:27:51.802Z,99.90
2022-07-27T01:30:27.495Z,99.90
2022-07-27T01:33:04.852Z,99.90
2022-07-27T01:35:32.324Z,99.90
2022-07-27T01:37:59.119Z,99.90
2022-07-27T01:40:28.284Z,99.90
2022-07-27T01:42:55.510Z,99.90
2022-07-27T01:45:22.520Z,99.90
2022-07-27T01:47:54.190Z,99.90
2022-07-27T01:50:23.023Z,99.90
2022-07-27T01:52:49.759Z,99.90
2022-07-27T01:55:16.536Z,99.90
2022-07-27T01:57:43.306Z,99.90
2022-07-27T02:00:12.304Z,99.90
2022-07-27T02:02:39.757Z,99.90
2022-07-27T02:05:08.060Z,99.90
2022-07-27T02:07:34.841Z,99.90
2022-07-27T02:10:01.680Z,99.90
2022-07-27T02:12:37.453Z,99.90
2022-07-27T02:15:06.367Z,99.90
2022-07-27T02:17:33.999Z,99.90
2022-07-27T02:20:02.240Z,99.90
2022-07-27T02:22:29.024Z,99.90
2022-07-27T02:24:58.099Z,99.90
2022-07-27T02:27:25.459Z,99.90
2022-07-27T02:29:53.395Z,99.90
2022-07-27T02:32:20.918Z,99.90
2022-07-27T02:34:50.271Z,99.90
2022-07-27T02:37:21.734Z,99.90
2022-07-27T02:39:48.859Z,99.90
2022-07-27T02:42:17.765Z,99.90
2022-07-27T02:44:47.020Z,99.90
2022-07-27T02:47:16.122Z,99.90
2022-07-27T02:49:42.859Z,99.90
2022-07-27T02:52:10.284Z,99.90
2022-07-27T02:54:37.229Z,99.90
2022-07-27T02:57:04.770Z,99.90
2022-07-27T02:59:31.660Z,99.90
2022-07-27T03:01:58.495Z,99.90
2022-07-27T03:04:25.662Z,99.90
2022-07-27T03:06:52.601Z,99.90
2022-07-27T03:09:19.336Z,99.90
2022-07-27T03:12:00.482Z,99.90
2022-07-27T03:14:29.513Z,99.90
2022-07-27T03:16:58.460Z,99.90
2022-07-27T03:19:30.294Z,99.90
2022-07-27T03:21:59.515Z,99.90
2022-07-27T03:24:28.505Z,99.90
2022-07-27T03:26:55.324Z,99.90
2022-07-27T03:29:22.147Z,99.90
2022-07-27T03:31:48.886Z,99.90
2022-07-27T03:34:15.689Z,99.90
2022-07-27T03:36:44.572Z,99.90
2022-07-27T03:39:14.196Z,99.90
2022-07-27T03:41:41.288Z,99.90
2022-07-27T03:44:08.119Z,99.90
2022-07-27T03:46:37.387Z,99.90
2022-07-27T03:49:14.462Z,99.90
2022-07-27T03:51:42.267Z,99.90
2022-07-27T03:54:09.034Z,99.90
2022-07-27T03:56:39.209Z,99.90
2022-07-27T03:59:06.032Z,99.90
2022-07-27T04:01:35.060Z,99.90
2022-07-27T04:04:02.730Z,99.90
2022-07-27T04:06:29.523Z,99.90
2022-07-27T04:09:08.612Z,99.90
2022-07-27T04:11:43.369Z,99.90
2022-07-27T04:14:17.891Z,99.90
2022-07-27T04:16:47.332Z,99.90
2022-07-27T04:19:19.023Z,99.90
2022-07-27T04:21:47.902Z,99.90
2022-07-27T04:24:17.114Z,99.90
2022-07-27T04:26:46.385Z,99.90
2022-07-27T04:29:20.146Z,99.90
2022-07-27T04:31:49.675Z,99.90
2022-07-27T04:34:18.946Z,99.90
2022-07-27T04:36:46.011Z,99.90
2022-07-27T04:39:15.448Z,99.90
2022-07-27T04:41:42.394Z,99.90
2022-07-27T04:44:09.190Z,99.90
2022-07-27T04:46:38.235Z,99.90
2022-07-27T04:49:05.109Z,99.90
2022-07-27T04:51:35.360Z,99.90
2022-07-27T04:54:02.860Z,99.90
2022-07-27T04:56:34.192Z,99.90
2022-07-27T04:59:03.509Z,99.90
2022-07-27T05:01:35.316Z,99.90
2022-07-27T05:04:04.036Z,99.90
2022-07-27T05:06:33.454Z,99.90
2022-07-27T05:09:03.416Z,99.90
2022-07-27T05:11:34.878Z,99.90
2022-07-27T05:14:02.500Z,99.90
2022-07-27T05:16:31.397Z,99.90
2022-07-27T05:18:58.148Z,99.90
2022-07-27T05:21:29.206Z,99.90
2022-07-27T05:23:56.134Z,99.90
2022-07-27T05:26:23.131Z,99.90
2022-07-27T05:28:52.176Z,99.90
2022-07-27T05:31:18.943Z,99.90
2022-07-27T05:33:49.152Z,99.90
2022-07-27T05:36:22.207Z,99.90
2022-07-27T05:38:48.968Z,99.90
2022-07-27T05:41:15.920Z,99.90
2022-07-27T05:43:47.654Z,99.90
2022-07-27T05:46:14.491Z,99.90
2022-07-27T05:48:41.875Z,99.90
2022-07-27T05:51:08.705Z,99.90
2022-07-27T05:53:37.972Z,99.90
2022-07-27T05:56:05.220Z,99.90
2022-07-27T05:58:34.457Z,99.90
2022-07-27T06:01:01.861Z,99.90
2022-07-27T06:03:31.063Z,99.90
2022-07-27T06:06:19.198Z,99.90
2022-07-27T06:08:45.919Z,99.90
2022-07-27T06:11:12.870Z,99.90
2022-07-27T06:13:42.160Z,99.90
2022-07-27T06:16:10.344Z,99.90
2022-07-27T06:18:37.338Z,99.90
2022-07-27T06:21:04.807Z,99.90
2022-07-27T06:23:33.701Z,99.90
2022-07-27T06:26:00.539Z,99.90
2022-07-27T06:28:29.748Z,99.90
2022-07-27T06:30:59.627Z,99.90
2022-07-27T06:33:29.029Z,99.90
2022-07-27T06:35:59.718Z,99.90
2022-07-27T06:38:29.227Z,99.90
2022-07-27T06:40:56.357Z,99.90
2022-07-27T06:43:25.363Z,99.90
2022-07-27T06:45:54.197Z,99.90
2022-07-27T06:48:21.808Z,99.90
2022-07-27T06:50:49.386Z,99.90
2022-07-27T06:53:20.852Z,99.90
2022-07-27T06:55:49.224Z,99.90
2022-07-27T06:58:16.387Z,99.90
2022-07-27T07:00:43.919Z,99.90
2022-07-27T07:03:11.329Z,99.90
2022-07-27T07:05:46.434Z,99.90
2022-07-27T07:08:16.248Z,99.90
2022-07-27T07:10:47.190Z,99.90
2022-07-27T07:13:14.169Z,99.90
2022-07-27T07:15:44.555Z,99.90
2022-07-27T07:18:12.421Z,99.90
2022-07-27T07:20:39.866Z,99.90
2022-07-27T07:23:09.529Z,99.90
2022-07-27T07:25:37.171Z,99.90
2022-07-27T07:28:05.109Z,99.90
2022-07-27T07:30:32.169Z,99.90
2022-07-27T07:32:59.516Z,99.90
2022-07-27T07:35:27.555Z,99.90
2022-07-27T07:37:56.415Z,99.90
2022-07-27T07:43:12.335Z,99.90
2022-07-27T07:45:50.383Z,99.90
2022-07-27T07:48:23.084Z,99.90
2022-07-27T07:50:53.939Z,99.90
2022-07-27T07:53:22.476Z,99.90
2022-07-27T07:55:49.711Z,99.90
2022-07-27T07:58:16.468Z,99.90
2022-07-27T08:00:45.883Z,99.90
2022-07-27T08:03:12.740Z,99.90
2022-07-27T08:05:39.581Z,99.90
2022-07-27T08:08:08.764Z,99.90
2022-07-27T08:10:38.047Z,99.90
2022-07-27T08:13:05.166Z,99.90
2022-07-27T08:15:35.702Z,99.90
2022-07-27T08:18:07.005Z,99.90
2022-07-27T08:20:34.638Z,99.90
2022-07-27T08:23:06.665Z,99.90
2022-07-27T08:25:33.529Z,99.90
2022-07-27T08:28:03.619Z,99.90
2022-07-27T08:30:32.974Z,99.90
2022-07-27T08:33:04.784Z,99.90
2022-07-27T08:35:33.048Z,99.90
2022-07-27T08:38:00.730Z,99.90
2022-07-27T08:40:46.797Z,99.90
2022-07-27T08:43:24.889Z,99.90
2022-07-27T08:46:00.907Z,99.90
2022-07-27T08:48:31.075Z,99.90
2022-07-27T08:51:03.226Z,99.90
2022-07-27T08:53:41.911Z,99.90
2022-07-27T08:56:21.777Z,99.90
2022-07-27T08:58:48.499Z,98.60
2022-07-27T09:01:17.568Z,97.50
2022-07-27T09:03:49.364Z,97.00
2022-07-27T09:06:42.649Z,97.40
2022-07-27T09:09:11.371Z,98.20
2022-07-27T09:11:38.924Z,98.70
2022-07-27T09:14:12.311Z,98.80
2022-07-27T09:17:28.329Z,98.20
2022-07-27T09:19:26.521Z,98.60
2022-07-27T09:21:55.359Z,99.60
2022-07-27T09:24:45.774Z,99.70
2022-07-27T09:27:09.225Z,99.80
2022-07-27T09:29:36.770Z,99.30
2022-07-27T09:32:17.629Z,99.30
2022-07-27T09:34:47.331Z,99.00
2022-07-27T09:37:26.826Z,99.50
2022-07-27T09:40:35.996Z,99.90
2022-07-27T09:44:05.459Z,99.90
2022-07-27T09:46:07.828Z,99.90
2022-07-27T09:48:37.840Z,99.90
2022-07-27T09:51:43.538Z,99.90
2022-07-27T09:53:56.072Z,99.90
2022-07-27T09:56:33.251Z,98.70
2022-07-27T09:59:05.158Z,98.40
2022-07-27T10:01:46.876Z,98.10
2022-07-27T10:04:16.240Z,97.20
2022-07-27T10:07:01.798Z,97.00
2022-07-27T10:09:31.040Z,97.00
2022-07-27T10:11:58.394Z,96.60
2022-07-27T10:14:25.678Z,96.50
2022-07-27T10:16:56.144Z,95.70
2022-07-27T10:19:51.031Z,94.70
2022-07-27T10:22:52.933Z,94.30
2022-07-27T10:25:22.784Z,94.10
2022-07-27T10:28:18.134Z,93.50
2022-07-27T10:30:52.247Z,93.40
2022-07-27T10:33:42.388Z,93.70
2022-07-27T10:36:31.788Z,94.30
2022-07-27T10:39:01.182Z,93.90
2022-07-27T10:41:43.696Z,93.50
2022-07-27T10:44:20.923Z,93.70
2022-07-27T10:47:03.973Z,92.70
2022-07-27T10:49:40.609Z,93.00
2022-07-27T10:52:44.746Z,92.10
2022-07-27T10:55:30.145Z,91.50
2022-07-27T10:57:58.504Z,92.50
2022-07-27T11:00:55.489Z,89.90
2022-07-27T11:03:23.741Z,90.90
2022-07-27T11:06:31.592Z,92.80
2022-07-27T11:09:46.388Z,90.80
